createdAt,value
2019-02-14T00:19:01.758Z,55.60
2019-02-14T01:00:18.822Z,58.20
2019-02-14T01:15:51.397Z,60.50
2019-02-14T01:18:28.457Z,47.70
2019-02-14T01:21:05.928Z,62.10
2019-02-14T01:23:43.202Z,48.10
2019-02-14T01:36:41.801Z,51.90
2019-02-14T02:23:10.907Z,54.40
2019-02-14T02:38:40.846Z,51.90
2019-02-14T02:56:50.089Z,45.70
2019-02-14T03:02:03.631Z,47.70
2019-02-14T03:25:22.082Z,56.70
2019-02-14T03:27:59.503Z,59.70
2019-02-14T03:30:36.791Z,45.10
2019-02-14T03:33:13.943Z,44.90
2019-02-14T03:35:51.136Z,45.60
2019-02-14T03:38:28.307Z,57.50
2019-02-14T03:46:14.628Z,45.60
2019-02-14T04:09:31.198Z,53.80
2019-02-14T04:12:08.519Z,52.30
2019-02-14T04:14:45.833Z,40.10
2019-02-14T04:17:22.998Z,39.20
2019-02-14T04:20:00.069Z,39.20
2019-02-14T04:22:37.375Z,39.90
2019-02-14T04:25:14.684Z,39.30
2019-02-14T04:30:26.501Z,51.40
2019-02-14T04:33:03.748Z,51.80
2019-02-14T04:35:40.949Z,52.70
2019-02-14T04:38:18.993Z,40.00
2019-02-14T04:40:56.276Z,41.00
2019-02-14T04:43:33.416Z,38.50
2019-02-14T04:46:10.529Z,38.50
2019-02-14T04:48:49.987Z,50.20
2019-02-14T04:51:28.181Z,38.60
2019-02-14T04:54:05.473Z,38.50
2019-02-14T04:56:42.549Z,38.40
2019-02-14T04:59:20.004Z,38.60
2019-02-14T05:01:57.413Z,38.00
2019-02-14T05:04:35.037Z,38.10
2019-02-14T05:07:12.349Z,39.30
2019-02-14T05:09:49.561Z,38.20
2019-02-14T05:12:26.667Z,38.40
2019-02-14T05:15:03.925Z,39.30
2019-02-14T05:17:41.184Z,45.40
2019-02-14T05:28:08.330Z,36.80
2019-02-14T05:33:20.125Z,37.80
2019-02-14T05:35:57.255Z,38.60
2019-02-14T05:38:34.401Z,38.40
2019-02-14T05:41:11.842Z,44.40
2019-02-14T05:43:48.976Z,37.10
2019-02-14T05:46:26.452Z,36.90
2019-02-14T05:49:03.588Z,37.50
2019-02-14T05:51:40.812Z,37.00
2019-02-14T05:54:18.140Z,37.60
2019-02-14T05:56:56.179Z,37.60
2019-02-14T05:59:33.958Z,37.60
2019-02-14T06:02:12.128Z,37.20
2019-02-14T06:04:49.324Z,37.50
2019-02-14T06:07:26.833Z,37.20
2019-02-14T06:10:04.304Z,37.80
2019-02-14T06:12:41.538Z,37.30
2019-02-14T06:15:18.906Z,36.80
2019-02-14T06:17:55.981Z,37.60
2019-02-14T06:20:33.511Z,36.90
2019-02-14T06:23:11.297Z,36.90
2019-02-14T06:25:49.300Z,37.30
2019-02-14T06:28:26.637Z,37.40
2019-02-14T07:04:37.911Z,41.90
2019-02-14T07:53:41.544Z,45.40
2019-02-14T08:19:33.134Z,48.10
2019-02-14T08:29:53.784Z,42.40
2019-02-14T08:32:31.159Z,43.40
2019-02-14T09:03:33.318Z,62.40
2019-02-14T09:06:10.452Z,65.90
2019-02-14T09:08:47.944Z,49.10
2019-02-14T09:11:25.355Z,49.10
2019-02-14T09:14:03.165Z,49.00
2019-02-14T09:16:40.360Z,49.40
2019-02-14T09:19:17.913Z,49.40
2019-02-14T09:21:55.217Z,50.10
2019-02-14T09:24:32.285Z,50.60
2019-02-14T09:27:09.412Z,51.00
2019-02-14T09:29:46.499Z,50.90
2019-02-14T09:32:26.511Z,51.10
2019-02-14T09:35:03.705Z,51.20
2019-02-14T09:37:40.829Z,51.30
2019-02-14T09:40:18.565Z,67.50
2019-02-14T09:42:55.622Z,51.60
2019-02-14T09:48:07.584Z,67.60
2019-02-14T09:53:19.488Z,66.00
2019-02-14T09:55:56.800Z,51.60
2019-02-14T09:58:34.074Z,52.30
2019-02-14T10:01:11.219Z,52.30
2019-02-14T10:03:49.948Z,52.10
2019-02-14T10:06:36.178Z,52.30
2019-02-14T10:09:06.558Z,51.90
2019-02-14T10:11:44.023Z,52.00
2019-02-14T10:14:21.482Z,52.00
2019-02-14T10:16:58.751Z,51.60
2019-02-14T10:19:36.151Z,50.90
2019-02-14T10:22:13.430Z,51.90
2019-02-14T10:24:52.529Z,52.10
2019-02-14T10:27:29.761Z,51.90
2019-02-14T10:30:07.102Z,51.70
2019-02-14T10:32:44.798Z,51.60
2019-02-14T10:35:22.338Z,51.20
2019-02-14T10:37:59.459Z,51.10
2019-02-14T10:40:36.539Z,50.90
2019-02-14T10:43:13.770Z,50.60
2019-02-14T10:45:50.761Z,50.40
2019-02-14T10:48:28.081Z,50.30
2019-02-14T10:51:05.140Z,76.20
2019-02-14T10:53:42.220Z,50.60
2019-02-14T10:56:19.532Z,51.00
2019-02-14T10:58:58.995Z,50.80
2019-02-14T11:01:36.062Z,73.80
2019-02-14T11:04:14.075Z,50.70
2019-02-14T11:06:51.590Z,50.70
2019-02-14T11:09:29.058Z,50.70
2019-02-14T11:12:06.450Z,74.60
2019-02-14T11:14:43.827Z,51.00
2019-02-14T11:17:20.862Z,74.60
2019-02-14T11:19:58.156Z,50.60
2019-02-14T11:22:35.203Z,50.40
2019-02-14T11:25:13.502Z,50.30
2019-02-14T11:27:50.692Z,50.80
2019-02-14T11:30:27.972Z,51.10
2019-02-14T11:33:05.112Z,51.50
2019-02-14T11:35:42.208Z,52.00
2019-02-14T11:38:19.264Z,76.20
2019-02-14T11:40:56.725Z,52.70
2019-02-14T11:43:37.887Z,53.20
2019-02-14T11:46:16.056Z,52.70
2019-02-14T11:48:53.290Z,53.60
2019-02-14T11:51:30.625Z,69.60
2019-02-14T12:09:39.409Z,69.90
2019-02-14T12:25:09.717Z,70.90
2019-02-14T12:27:47.703Z,71.30
2019-02-14T12:38:08.378Z,63.40
2019-02-14T12:40:45.507Z,70.90
2019-02-14T18:11:51.883Z,79.40
2019-02-14T18:14:28.861Z,79.90
2019-02-14T18:17:05.678Z,80.70
2019-02-14T18:22:17.802Z,80.60
2019-02-14T18:24:54.824Z,79.80
2019-02-14T18:35:15.346Z,80.50
2019-02-14T18:40:27.356Z,79.80
2019-02-14T18:43:04.393Z,80.20
2019-02-14T18:45:41.338Z,80.40
2019-02-14T18:48:18.260Z,82.00
2019-02-14T18:53:30.506Z,82.20
2019-02-14T18:56:08.813Z,82.10
2019-02-14T18:58:45.714Z,81.90
2019-02-14T19:06:31.626Z,81.40
2019-02-14T19:09:09.359Z,81.70
2019-02-14T19:14:20.660Z,81.40
2019-02-14T19:16:58.047Z,80.90
2019-02-14T19:19:34.934Z,81.00
2019-02-14T19:24:46.455Z,81.60
2019-02-14T19:27:23.309Z,81.50
2019-02-14T19:32:34.815Z,83.00
2019-02-14T19:35:12.514Z,82.90
2019-02-14T19:37:50.033Z,83.00
2019-02-14T19:40:26.983Z,76.10
2019-02-14T19:45:38.414Z,83.00
2019-02-14T19:48:15.392Z,82.90
2019-02-14T19:53:26.686Z,82.90
2019-02-14T19:58:38.027Z,83.00
2019-02-14T20:01:14.983Z,83.00
2019-02-14T20:03:51.872Z,78.20
2019-02-14T20:06:28.799Z,82.60
2019-02-14T20:09:06.112Z,81.90
2019-02-14T20:11:43.053Z,77.90
2019-02-14T20:16:54.454Z,82.30
2019-02-14T20:19:31.359Z,82.30
2019-02-14T20:22:11.991Z,81.80
2019-02-14T20:24:49.102Z,82.30
2019-02-14T20:27:26.846Z,74.40
2019-02-14T20:30:06.064Z,83.50
2019-02-14T20:32:42.923Z,79.50
2019-02-14T20:35:20.285Z,84.10
2019-02-14T20:37:57.255Z,85.20
2019-02-14T20:40:34.733Z,84.60
2019-02-14T20:43:11.653Z,84.00
2019-02-14T20:48:24.743Z,83.80
2019-02-14T20:51:01.685Z,77.00
2019-02-14T20:53:38.483Z,82.60
2019-02-14T20:56:15.536Z,82.10
2019-02-14T20:58:54.571Z,81.60
2019-02-14T21:04:05.961Z,81.70
2019-02-14T21:09:17.344Z,81.70
2019-02-14T21:11:54.889Z,81.40
2019-02-14T21:14:32.137Z,80.60
2019-02-14T21:19:43.907Z,80.20
2019-02-14T21:22:20.858Z,79.00
2019-02-14T21:37:50.494Z,78.50
2019-02-14T21:40:27.456Z,78.80
2019-02-14T21:45:39.565Z,77.90
2019-02-14T21:48:16.620Z,68.30
2019-02-14T21:50:53.575Z,76.40
2019-02-14T21:56:04.944Z,76.60
2019-02-14T21:58:41.939Z,76.90
2019-02-14T22:01:19.575Z,75.00
2019-02-14T22:03:57.747Z,67.30
2019-02-14T22:06:34.617Z,74.70
2019-02-14T22:11:46.623Z,74.00
2019-02-14T22:14:23.884Z,73.80
2019-02-14T22:22:09.849Z,71.20
2019-02-14T22:24:46.834Z,71.70
2019-02-14T22:29:59.780Z,66.60
2019-02-14T22:37:45.695Z,70.90
2019-02-14T22:41:09.458Z,66.70
2019-02-14T22:48:57.279Z,70.20
2019-02-14T22:56:43.088Z,64.30
2019-02-14T22:59:20.112Z,69.70
2019-02-14T23:07:06.407Z,68.40
2019-02-14T23:12:19.078Z,70.10
2019-02-14T23:14:56.071Z,71.10
2019-02-14T23:17:33.042Z,68.80
2019-02-14T23:22:44.668Z,69.20
2019-02-14T23:25:21.724Z,68.90
2019-02-14T23:27:58.656Z,69.60
2019-02-14T23:30:35.651Z,69.40
2019-02-14T23:35:46.998Z,65.00
2019-02-14T23:43:32.762Z,61.40
2019-02-14T23:53:53.625Z,54.30
